2018-06-22 - 12:34:00

SR: 0308 - SS: 1954

RWY: 25


OBSERVATION: n/a

RVR Mean 1 min: (Runway Visual Range)
A: P2000 - B: P2000 - C: P2000
RVR Mean 10 min:
A: P2000 - B: P2000 - C: P2000
WARNING: n/a
W25: 260-340(300-11kt) 04kt-15kt
W07: 260-340(290-09kt) 04kt-16kt
OTHER: n/a

QFE: (tats�chlicher Luftdruck) 1017.7 hPa = 30.03 inHg
QNH:(Luftdruck auf Meeresh�he) 1023.6 hPa = 30.20 inHg
Temperatur: 14.2 �C
Dew point(Taupunkt): 9.7 �C

METAR:  00222 SADL31 EDDG 221220 METAR EDDG 221220Z 30007KT 270V350 9999 FEW018CB BKN060 14/10 Q1023 TEMPO SHRA= 
METAR (aus weather.noaa.gov):
2018/06/22 12:20 EDDG 221220Z 30007KT 270V350 9999 FEW018CB BKN060 14/10 Q1023 TEMPO SHRA

TAF (aus weather.noaa.gov):
2018/06/22 12:27 TAF EDDG 221100Z 2212/2312 29010KT 9999 BKN035 TEMPO 2212/2216 30015G25KT TEMPO 2212/2214 SHRA BKN025TCU BECMG 2302/2305 BKN008 TEMPO 2303/2306 3000 -DZRA BKN003 BECMG 2309/2312 BKN015